Time;durP1;ratioP1;P1;durP2;ratioP2;P2;SDS_P1;SDS_P2;PMS_P1;PMS_P2;Temp;Humidity;BMP_temperature;BMP_pressure;BME280_temperature;BME280_humidity;BME280_pressure;Samples;Min_cycle;Max_cycle;Signal;HPM_P1;HPM_P2
2023/06/19 00:01:56;;;;;;;4.80;4.40;;;27.40;48.40;28.00;100120.00;;;;5031831;28;20171;-50
2023/06/19 00:04:22;;;;;;;4.70;4.28;;;27.40;48.50;28.00;100121.00;;;;5032100;28;20167;-50
2023/06/19 00:06:50;;;;;;;4.80;4.40;;;27.40;48.50;28.00;100119.00;;;;5032224;28;20206;-48
2023/06/19 00:09:17;;;;;;;4.63;4.32;;;27.40;48.50;28.00;100111.00;;;;5033761;28;20187;-48
2023/06/19 00:11:42;;;;;;;4.32;4.03;;;27.40;48.80;28.00;100117.00;;;;5034062;28;20167;-49
2023/06/19 00:14:08;;;;;;;4.53;4.07;;;27.30;48.60;28.00;100121.00;;;;5041897;28;20538;-51
2023/06/19 00:16:34;;;;;;;4.85;4.47;;;27.40;48.80;27.90;100124.00;;;;5032370;28;20202;-49
2023/06/19 00:19:00;;;;;;;4.43;4.13;;;27.30;48.80;27.90;100116.00;;;;5030823;28;20199;-48
2023/06/19 00:21:25;;;;;;;4.40;4.10;;;27.30;48.80;27.90;100124.00;;;;5031113;28;20664;-50
2023/06/19 00:23:52;;;;;;;5.05;4.65;;;27.30;48.80;27.90;100114.00;;;;5030480;28;20240;-49
2023/06/19 00:26:19;;;;;;;4.60;4.20;;;27.30;48.80;27.90;100108.00;;;;5030362;28;20193;-47
2023/06/19 00:28:47;;;;;;;5.00;4.60;;;27.30;48.80;27.90;100111.00;;;;5030472;28;20530;-50
2023/06/19 00:31:14;;;;;;;4.75;4.20;;;27.30;48.70;27.90;100114.00;;;;5030636;28;20182;-48
2023/06/19 00:33:40;;;;;;;4.15;3.85;;;27.30;48.80;27.90;100111.00;;;;5030651;28;20644;-48
2023/06/19 00:36:14;;;;;;;5.05;4.63;;;27.20;48.80;27.80;100115.00;;;;5029965;28;20724;-47
2023/06/19 00:38:40;;;;;;;4.68;4.28;;;27.20;48.90;27.80;100122.00;;;;5030407;28;20623;-48
2023/06/19 00:41:07;;;;;;;4.70;4.30;;;27.20;48.80;27.80;100126.00;;;;5030350;28;20205;-49
2023/06/19 00:43:33;;;;;;;4.63;4.32;;;27.20;48.90;27.80;100116.00;;;;5030053;28;20604;-48
2023/06/19 00:45:59;;;;;;;4.93;4.53;;;27.20;48.90;27.80;100129.00;;;;5030029;28;20244;-48
2023/06/19 00:48:26;;;;;;;5.38;4.88;;;27.20;48.90;27.80;100134.00;;;;5030291;28;20163;-49
2023/06/19 00:50:52;;;;;;;4.88;4.47;;;27.20;48.80;27.80;100139.00;;;;5028838;28;20183;-47
2023/06/19 00:53:18;;;;;;;5.22;4.82;;;27.20;48.90;27.60;100137.00;;;;5028856;28;20182;-50
2023/06/19 00:55:44;;;;;;;5.38;4.97;;;27.20;48.90;27.70;100138.00;;;;5028461;28;20173;-51
2023/06/19 00:58:10;;;;;;;4.95;4.55;;;27.10;48.80;27.70;100136.00;;;;5012350;28;20258;-48
2023/06/19 01:00:35;;;;;;;4.60;4.30;;;27.20;48.90;27.70;100145.00;;;;5029833;28;20278;-48
2023/06/19 01:03:01;;;;;;;4.97;4.50;;;27.20;49.00;27.70;100152.00;;;;5029911;28;20171;-48
2023/06/19 01:05:27;;;;;;;5.05;4.75;;;27.20;49.00;27.70;100142.00;;;;5029446;28;20193;-49
2023/06/19 01:08:04;;;;;;;4.75;4.45;;;27.10;48.90;27.70;100136.00;;;;5029737;28;20580;-49
2023/06/19 01:10:43;;;;;;;4.90;4.50;;;27.10;49.10;27.70;100145.00;;;;5012773;28;20182;-48
2023/06/19 01:13:37;;;;;;;5.05;4.65;;;27.10;49.20;27.70;100154.00;;;;5011824;28;20177;-49
2023/06/19 01:16:03;;;;;;;4.95;4.55;;;27.10;49.40;27.60;100151.00;;;;5013214;28;20217;-48
2023/06/19 01:18:30;;;;;;;4.88;4.50;;;27.10;49.40;27.60;100149.00;;;;5012602;28;20851;-48
2023/06/19 01:20:56;;;;;;;4.78;4.47;;;27.10;49.50;27.60;100147.00;;;;5028938;28;20206;-49
2023/06/19 01:23:22;;;;;;;4.60;4.30;;;27.10;49.70;27.60;100148.00;;;;5028956;28;20252;-49
2023/06/19 01:25:47;;;;;;;4.93;4.53;;;27.10;50.30;27.60;100145.00;;;;5030007;28;20529;-50
2023/06/19 01:28:13;;;;;;;4.70;4.40;;;27.00;49.60;27.60;100143.00;;;;5029679;28;20171;-48
2023/06/19 01:30:40;;;;;;;5.25;4.85;;;27.00;49.80;27.60;100137.00;;;;5029644;28;20170;-49
2023/06/19 01:33:14;;;;;;;5.20;4.80;;;27.00;49.80;27.60;100144.00;;;;5028476;28;20209;-49
2023/06/19 01:35:41;;;;;;;5.10;4.70;;;27.00;49.90;27.50;100140.00;;;;4996518;28;20186;-50
2023/06/19 01:38:07;;;;;;;4.70;4.40;;;27.00;49.70;27.50;100131.00;;;;5028178;28;20563;-48
2023/06/19 01:40:33;;;;;;;5.05;4.70;;;27.00;50.30;27.50;100143.00;;;;5012102;28;20207;-48
2023/06/19 01:43:00;;;;;;;5.00;4.60;;;27.00;49.70;27.50;100137.00;;;;5012122;28;20181;-48
2023/06/19 01:45:28;;;;;;;5.13;4.72;;;27.00;49.90;27.50;100149.00;;;;5028052;28;20163;-49
2023/06/19 01:47:54;;;;;;;5.07;4.68;;;27.00;49.90;27.50;100157.00;;;;5012085;28;20286;-50
2023/06/19 01:50:23;;;;;;;4.97;4.57;;;27.00;50.10;27.40;100150.00;;;;5034888;28;20666;-48
2023/06/19 01:52:50;;;;;;;4.85;4.55;;;27.00;50.10;27.40;100156.00;;;;5035728;28;20637;-49
2023/06/19 01:55:15;;;;;;;5.05;4.65;;;26.90;50.20;27.40;100161.00;;;;5035456;28;20230;-46
2023/06/19 01:57:41;;;;;;;5.03;4.72;;;27.00;50.30;27.40;100155.00;;;;5030829;28;20358;-47
2023/06/19 02:00:07;;;;;;;5.10;4.70;;;26.90;50.30;27.40;100146.00;;;;5029654;28;20260;-48
2023/06/19 02:02:34;;;;;;;5.55;5.00;;;26.90;50.30;27.40;100154.00;;;;5030021;28;20676;-47
2023/06/19 02:04:59;;;;;;;5.30;4.90;;;26.90;50.40;27.40;100148.00;;;;5039534;28;20167;-49
2023/06/19 02:07:25;;;;;;;4.90;4.60;;;26.90;50.40;27.40;100159.00;;;;5033525;28;20780;-49
2023/06/19 02:09:51;;;;;;;5.57;5.07;;;26.90;50.30;27.40;100158.00;;;;5030878;28;20538;-49
2023/06/19 02:12:17;;;;;;;5.45;5.05;;;26.90;50.20;27.30;100171.00;;;;5030978;28;20546;-52
2023/06/19 02:14:43;;;;;;;5.57;5.18;;;26.90;50.00;27.30;100172.00;;;;5031127;28;20190;-49
2023/06/19 02:17:09;;;;;;;5.20;4.90;;;26.90;50.00;27.30;100178.00;;;;5030976;28;20186;-47
2023/06/19 02:19:34;;;;;;;5.45;5.05;;;26.90;50.00;27.30;100175.00;;;;5039414;28;20349;-48
2023/06/19 02:22:00;;;;;;;5.50;5.10;;;26.90;50.00;27.30;100188.00;;;;5035803;28;20175;-50
2023/06/19 02:24:26;;;;;;;5.80;5.30;;;26.90;50.30;27.30;100200.00;;;;5029922;28;20190;-48
2023/06/19 02:26:51;;;;;;;5.55;5.05;;;26.90;50.40;27.20;100198.00;;;;5033084;28;20232;-48
2023/06/19 02:29:17;;;;;;;5.40;5.00;;;26.90;50.50;27.20;100206.00;;;;5032724;28;20580;-47
2023/06/19 02:31:44;;;;;;;5.93;5.53;;;26.80;50.50;27.20;100203.00;;;;5032891;28;20668;-47
2023/06/19 02:34:10;;;;;;;5.60;5.20;;;26.80;50.80;27.20;100210.00;;;;5032607;28;20167;-49
2023/06/19 02:36:36;;;;;;;5.93;5.50;;;26.80;50.80;27.10;100222.00;;;;5032821;28;20202;-48
2023/06/19 02:39:04;;;;;;;5.70;5.30;;;26.80;50.80;27.10;100226.00;;;;5032998;28;20194;-48
2023/06/19 02:41:30;;;;;;;5.82;5.43;;;26.80;50.80;27.10;100223.00;;;;5032705;28;20658;-47
2023/06/19 02:43:55;;;;;;;5.32;4.93;;;26.70;50.80;27.10;100223.00;;;;5032917;28;20163;-47
2023/06/19 02:46:21;;;;;;;5.90;5.40;;;26.70;50.80;27.10;100235.00;;;;5032240;28;20199;-49
2023/06/19 02:48:47;;;;;;;5.85;5.45;;;26.70;50.70;27.00;100234.00;;;;5032418;28;20167;-50
2023/06/19 02:51:12;;;;;;;5.93;5.53;;;26.70;50.70;27.00;100230.00;;;;5032558;28;20171;-48
2023/06/19 02:53:38;;;;;;;5.80;5.30;;;26.70;50.70;27.00;100232.00;;;;5031384;28;20199;-46
2023/06/19 02:56:04;;;;;;;5.88;5.38;;;26.70;50.60;27.00;100230.00;;;;5032156;28;20541;-48
2023/06/19 02:58:31;;;;;;;6.20;5.80;;;26.70;50.60;27.00;100239.00;;;;5031484;28;20194;-48
2023/06/19 03:00:56;;;;;;;6.00;5.55;;;26.60;50.60;27.00;100227.00;;;;5032795;28;20199;-49
2023/06/19 03:03:22;;;;;;;6.07;5.68;;;26.70;50.60;27.00;100237.00;;;;5032113;28;20191;-48
2023/06/19 03:05:48;;;;;;;5.78;5.35;;;26.60;50.50;27.00;100227.00;;;;5031880;28;20571;-48
2023/06/19 03:08:14;;;;;;;6.22;5.78;;;26.60;50.50;27.00;100231.00;;;;5032143;28;20270;-48
2023/06/19 03:10:40;;;;;;;6.57;5.97;;;26.60;50.50;26.90;100241.00;;;;5031938;28;20316;-48
2023/06/19 03:13:05;;;;;;;5.95;5.55;;;26.60;50.60;26.90;100231.00;;;;5032149;28;20296;-49
2023/06/19 03:15:31;;;;;;;6.53;5.93;;;26.60;50.60;26.90;100241.00;;;;5028406;28;20170;-51
2023/06/19 03:17:57;;;;;;;6.22;5.68;;;26.60;50.70;26.90;100241.00;;;;5021279;28;20203;-48
2023/06/19 03:20:22;;;;;;;5.85;5.45;;;26.50;50.70;26.90;100254.00;;;;5012054;28;20682;-49
2023/06/19 03:22:48;;;;;;;5.85;5.45;;;26.60;50.80;26.90;100249.00;;;;5011797;28;20172;-48
2023/06/19 03:25:14;;;;;;;6.03;5.50;;;26.60;50.80;26.90;100256.00;;;;5011018;28;20203;-49
2023/06/19 03:27:40;;;;;;;6.22;5.72;;;26.50;50.80;26.90;100267.00;;;;5011459;28;20278;-47
2023/06/19 03:30:06;;;;;;;6.13;5.70;;;26.50;50.80;26.90;100262.00;;;;5011082;28;20218;-48
2023/06/19 03:32:33;;;;;;;6.45;5.95;;;26.50;50.80;26.90;100263.00;;;;5011336;28;20171;-48
2023/06/19 03:34:59;;;;;;;6.13;5.63;;;26.50;50.80;26.80;100264.00;;;;5010837;28;20191;-48
2023/06/19 03:37:25;;;;;;;6.13;5.55;;;26.50;50.80;26.80;100270.00;;;;5010545;28;20759;-49
2023/06/19 03:39:50;;;;;;;6.40;5.90;;;26.50;50.80;26.80;100283.00;;;;5011366;28;20573;-49
2023/06/19 03:42:16;;;;;;;6.55;5.88;;;26.40;50.90;26.80;100281.00;;;;5011315;28;20168;-48
2023/06/19 03:44:42;;;;;;;6.43;5.93;;;26.50;51.00;26.80;100299.00;;;;5010989;28;20172;-50
2023/06/19 03:47:08;;;;;;;6.30;5.80;;;26.40;51.10;26.80;100303.00;;;;5023362;28;20192;-50
2023/06/19 03:49:33;;;;;;;6.40;5.90;;;26.40;51.20;26.70;100314.00;;;;5035546;28;20187;-51
2023/06/19 03:51:59;;;;;;;5.72;5.32;;;26.50;51.40;26.70;100318.00;;;;5022040;28;20226;-48
2023/06/19 03:54:26;;;;;;;6.13;5.63;;;26.40;51.30;26.70;100319.00;;;;5010542;28;20172;-47
2023/06/19 03:56:52;;;;;;;6.00;5.50;;;26.30;51.40;26.70;100338.00;;;;5010915;28;20262;-48
2023/06/19 03:59:18;;;;;;;5.35;4.95;;;26.30;51.90;26.70;100322.00;;;;5010934;28;20744;-48
2023/06/19 04:01:43;;;;;;;5.25;4.85;;;26.30;52.10;26.60;100324.00;;;;5010459;28;20183;-49
2023/06/19 04:04:09;;;;;;;4.60;4.20;;;26.30;52.30;26.60;100336.00;;;;5010237;28;20172;-48
2023/06/19 04:06:35;;;;;;;4.50;4.10;;;26.30;52.60;26.60;100336.00;;;;5010757;28;20195;-48
2023/06/19 04:09:00;;;;;;;4.60;4.20;;;26.20;52.80;26.50;100335.00;;;;5037518;28;20240;-51
2023/06/19 04:11:26;;;;;;;4.57;4.28;;;26.20;53.00;26.50;100349.00;;;;5039369;28;20178;-49
2023/06/19 04:13:52;;;;;;;4.22;3.92;;;26.20;53.30;26.50;100356.00;;;;5033298;28;20167;-50
2023/06/19 04:16:18;;;;;;;4.40;4.10;;;26.20;53.40;26.50;100361.00;;;;5030079;28;20199;-48
2023/06/19 04:18:43;;;;;;;4.13;3.63;;;26.10;53.70;26.40;100357.00;;;;5032532;28;20195;-48
2023/06/19 04:21:09;;;;;;;4.60;4.20;;;26.00;53.90;26.40;100360.00;;;;5031588;28;20558;-48
2023/06/19 04:23:35;;;;;;;4.30;3.90;;;26.00;54.00;26.40;100364.00;;;;5037044;28;20170;-50
2023/06/19 04:26:01;;;;;;;4.15;3.83;;;26.10;54.00;26.40;100368.00;;;;5039414;28;20171;-49
2023/06/19 04:28:27;;;;;;;4.90;3.80;;;26.10;54.00;26.30;100367.00;;;;5031354;28;20174;-49
2023/06/19 04:31:00;;;;;;;3.85;3.55;;;26.00;54.10;26.30;100368.00;;;;5030409;28;20511;-48
2023/06/19 04:33:28;;;;;;;4.10;3.80;;;26.00;54.20;26.30;100372.00;;;;5028919;28;20194;-47
2023/06/19 04:35:53;;;;;;;4.05;3.65;;;26.00;54.40;26.10;100381.00;;;;5028958;28;20194;-49
2023/06/19 04:38:23;;;;;;;4.05;3.50;;;26.00;54.40;26.30;100389.00;;;;5030381;28;20168;-51
2023/06/19 04:40:52;;;;;;;3.88;3.50;;;26.00;54.90;26.20;100379.00;;;;5030392;28;20190;-52
2023/06/19 04:43:18;;;;;;;3.85;3.28;;;26.00;54.90;26.20;100381.00;;;;5029702;28;20628;-53
2023/06/19 04:45:44;;;;;;;3.70;3.38;;;25.90;54.30;26.20;100395.00;;;;5028945;28;20167;-50
2023/06/19 04:48:10;;;;;;;5.25;3.13;;;25.90;53.90;26.30;100379.00;;;;5029723;28;20592;-52
2023/06/19 04:50:35;;;;;;;3.60;3.30;;;25.90;53.40;26.30;100381.00;;;;5029942;28;20167;-53
2023/06/19 04:53:01;;;;;;;3.97;3.30;;;25.90;53.00;26.30;100390.00;;;;5030118;28;20568;-53
2023/06/19 04:55:27;;;;;;;4.00;3.40;;;26.00;52.80;26.30;100391.00;;;;5028944;28;20654;-52
2023/06/19 04:57:53;;;;;;;3.88;3.15;;;25.90;52.40;26.30;100395.00;;;;5029779;28;20283;-51
2023/06/19 05:00:19;;;;;;;3.42;3.20;;;25.90;52.20;26.40;100391.00;;;;5029661;28;20210;-52
2023/06/19 05:02:47;;;;;;;3.40;3.10;;;26.00;51.90;26.30;100394.00;;;;5030099;28;20171;-51
2023/06/19 05:05:16;;;;;;;3.13;2.92;;;26.00;51.80;26.40;100389.00;;;;5028644;28;20178;-51
2023/06/19 05:07:42;;;;;;;3.47;3.20;;;26.00;51.60;26.40;100391.00;;;;5029817;28;20192;-52
2023/06/19 05:10:08;;;;;;;3.25;3.05;;;26.00;51.50;26.40;100392.00;;;;5029818;28;20233;-52
2023/06/19 05:12:34;;;;;;;3.55;3.15;;;26.00;51.40;26.40;100400.00;;;;5017542;28;20275;-51
2023/06/19 05:15:00;;;;;;;3.40;3.10;;;26.00;51.30;26.40;100383.00;;;;5025291;28;20639;-51
2023/06/19 05:17:26;;;;;;;3.58;3.28;;;26.00;51.10;26.40;100397.00;;;;5019568;28;20229;-52
2023/06/19 05:19:52;;;;;;;3.40;3.10;;;26.00;51.00;26.40;100395.00;;;;5028318;28;20222;-52
2023/06/19 05:22:26;;;;;;;3.55;3.25;;;26.00;50.90;26.40;100394.00;;;;5027101;28;20182;-52
2023/06/19 05:24:52;;;;;;;3.40;3.10;;;26.00;50.80;26.40;100397.00;;;;5037064;28;20182;-52
2023/06/19 05:27:18;;;;;;;3.30;3.10;;;26.00;50.70;26.40;100411.00;;;;5027023;28;20260;-53
2023/06/19 05:29:43;;;;;;;3.10;2.90;;;26.00;50.70;26.40;100407.00;;;;5026894;28;20186;-52
2023/06/19 05:32:09;;;;;;;3.35;2.90;;;26.00;50.70;26.40;100404.00;;;;5027107;28;20182;-51
2023/06/19 05:34:35;;;;;;;3.15;2.95;;;26.00;50.50;26.40;100410.00;;;;5026808;28;20187;-52
2023/06/19 05:37:03;;;;;;;3.35;2.80;;;26.00;50.50;26.40;100409.00;;;;5026749;28;20202;-52
2023/06/19 05:39:29;;;;;;;3.10;2.90;;;26.00;50.50;26.40;100411.00;;;;5027317;28;20230;-53
2023/06/19 05:41:55;;;;;;;3.30;3.00;;;26.00;50.50;26.40;100402.00;;;;5027838;28;20257;-51
2023/06/19 05:44:20;;;;;;;3.20;3.00;;;25.90;50.40;26.40;100408.00;;;;5028065;28;20515;-52
2023/06/19 05:46:46;;;;;;;3.25;3.05;;;25.90;50.40;26.40;100403.00;;;;5028201;28;20637;-50
2023/06/19 05:49:12;;;;;;;3.08;2.80;;;26.00;50.50;26.40;100400.00;;;;5032677;28;20558;-52
2023/06/19 05:51:38;;;;;;;3.25;2.95;;;26.00;50.50;26.40;100395.00;;;;5029934;28;20209;-54
2023/06/19 05:54:04;;;;;;;3.10;2.90;;;25.90;50.40;26.40;100402.00;;;;5028973;28;20202;-52
2023/06/19 05:56:32;;;;;;;3.20;2.90;;;25.90;50.40;26.40;100421.00;;;;5026967;28;20289;-51
2023/06/19 05:58:59;;;;;;;2.80;2.60;;;25.90;50.40;26.40;100407.00;;;;5026891;28;20225;-52
2023/06/19 06:01:27;;;;;;;3.03;2.60;;;25.90;50.40;26.40;100424.00;;;;5030991;28;20336;-52
2023/06/19 06:03:56;;;;;;;3.28;2.95;;;25.80;50.40;26.50;100418.00;;;;5021464;28;20183;-51
2023/06/19 06:06:23;;;;;;;2.70;2.50;;;25.90;50.70;26.50;100419.00;;;;5017757;28;20337;-52
2023/06/19 06:08:49;;;;;;;3.17;2.97;;;26.00;50.70;26.50;100411.00;;;;5013329;28;20266;-52
2023/06/19 06:11:14;;;;;;;2.80;2.60;;;26.00;50.80;26.50;100424.00;;;;5016644;28;20194;-51
2023/06/19 06:13:40;;;;;;;3.05;2.85;;;26.00;50.70;26.60;100421.00;;;;5039633;28;20182;-51
2023/06/19 06:16:06;;;;;;;3.00;2.80;;;26.00;50.70;26.60;100416.00;;;;5039182;28;20633;-51
2023/06/19 06:18:32;;;;;;;3.10;2.90;;;26.00;50.80;26.60;100416.00;;;;5032310;28;20229;-51
2023/06/19 06:20:59;;;;;;;3.35;3.08;;;26.00;50.90;26.60;100426.00;;;;5031398;28;20703;-51
2023/06/19 06:23:25;;;;;;;3.10;2.90;;;26.00;51.00;26.60;100427.00;;;;5047101;28;20680;-51
2023/06/19 06:25:50;;;;;;;2.90;2.70;;;26.00;51.10;26.60;100420.00;;;;5031645;28;20234;-54
2023/06/19 06:28:17;;;;;;;3.05;2.80;;;26.00;51.20;26.60;100412.00;;;;5034638;28;20175;-57
2023/06/19 06:30:43;;;;;;;3.17;2.88;;;26.00;51.20;26.60;100417.00;;;;5046406;28;20187;-52
2023/06/19 06:33:09;;;;;;;3.50;2.75;;;26.00;51.00;26.60;100427.00;;;;5031029;28;20962;-52
2023/06/19 06:35:35;;;;;;;4.40;2.70;;;26.00;51.00;26.60;100420.00;;;;5029450;28;20201;-51
2023/06/19 06:38:02;;;;;;;4.05;2.50;;;26.00;51.00;26.60;100423.00;;;;5029586;28;20191;-53
2023/06/19 06:40:28;;;;;;;3.47;2.88;;;26.10;51.10;26.70;100420.00;;;;5029961;28;20195;-53
2023/06/19 06:42:53;;;;;;;3.90;2.65;;;26.10;51.10;26.70;100424.00;;;;5045503;28;20178;-52
2023/06/19 06:45:19;;;;;;;6.85;2.90;;;26.10;51.10;26.70;100426.00;;;;5029021;28;20168;-49
2023/06/19 06:47:45;;;;;;;12.00;4.15;;;26.10;51.00;26.70;100435.00;;;;5029930;28;20258;-51
2023/06/19 06:50:11;;;;;;;12.57;3.92;;;26.10;51.00;26.70;100448.00;;;;5030108;28;20581;-53
2023/06/19 06:52:37;;;;;;;13.25;3.85;;;26.10;50.90;26.70;100442.00;;;;5030235;28;20203;-52
2023/06/19 06:55:04;;;;;;;19.50;5.07;;;26.10;51.00;26.70;100446.00;;;;5029792;28;20259;-52
2023/06/19 06:57:30;;;;;;;12.60;4.20;;;26.10;50.70;26.70;100446.00;;;;5029312;28;20198;-51
2023/06/19 06:59:56;;;;;;;12.25;4.20;;;26.20;50.90;26.70;100456.00;;;;5029834;28;20206;-52
2023/06/19 07:02:21;;;;;;;11.48;4.25;;;26.20;51.30;26.70;100452.00;;;;5029668;28;20178;-51
2023/06/19 07:04:47;;;;;;;12.40;4.93;;;26.20;51.70;26.80;100469.00;;;;5028224;28;20172;-52
2023/06/19 07:07:13;;;;;;;14.77;4.03;;;26.20;51.60;26.70;100471.00;;;;5029508;28;20183;-52
2023/06/19 07:09:39;;;;;;;10.38;3.75;;;26.20;51.50;26.70;100466.00;;;;5028516;28;20546;-51
2023/06/19 07:12:06;;;;;;;10.65;3.92;;;26.20;51.50;26.80;100475.00;;;;5028144;28;20178;-51
2023/06/19 07:14:32;;;;;;;9.13;3.85;;;26.20;52.10;26.80;100481.00;;;;5028376;28;20163;-52
2023/06/19 07:16:58;;;;;;;8.82;3.50;;;26.20;51.60;26.80;100476.00;;;;5027461;28;20199;-52
2023/06/19 07:19:24;;;;;;;11.00;3.95;;;26.20;51.70;26.80;100476.00;;;;5028299;28;20219;-53
2023/06/19 07:21:50;;;;;;;7.03;3.70;;;26.20;51.70;26.80;100479.00;;;;5029312;28;20171;-52
2023/06/19 07:24:16;;;;;;;7.80;3.45;;;26.20;52.50;26.80;100474.00;;;;5010592;28;20179;-53
2023/06/19 07:26:41;;;;;;;10.00;3.35;;;26.20;51.70;26.80;100473.00;;;;5029103;28;20193;-52
2023/06/19 07:29:07;;;;;;;7.05;3.38;;;26.20;51.60;26.80;100476.00;;;;5029853;28;20171;-52
2023/06/19 07:31:33;;;;;;;8.60;3.70;;;26.20;51.50;26.80;100466.00;;;;5029406;28;20170;-52
2023/06/19 07:33:59;;;;;;;10.10;3.47;;;26.20;51.60;26.80;100473.00;;;;5029289;28;20190;-53
2023/06/19 07:36:24;;;;;;;6.30;3.10;;;26.20;51.60;26.80;100481.00;;;;5029254;28;20879;-52
2023/06/19 07:38:51;;;;;;;7.03;3.30;;;26.20;51.50;26.80;100478.00;;;;5028820;28;20715;-53
2023/06/19 07:41:17;;;;;;;7.13;3.13;;;26.20;51.50;26.80;100487.00;;;;5028315;28;20163;-52
2023/06/19 07:43:43;;;;;;;7.30;3.33;;;26.20;51.50;26.80;100481.00;;;;5028047;28;20167;-51
2023/06/19 07:46:10;;;;;;;9.10;3.60;;;26.20;51.50;26.80;100470.00;;;;5027611;28;20214;-53
2023/06/19 07:48:35;;;;;;;8.80;3.25;;;26.20;51.50;26.80;100479.00;;;;5039417;28;20251;-51
2023/06/19 07:51:01;;;;;;;6.38;2.97;;;26.20;51.40;26.80;100482.00;;;;5017684;28;20171;-51
2023/06/19 07:53:27;;;;;;;7.35;2.97;;;26.20;51.40;26.80;100481.00;;;;5013275;28;20186;-51
2023/06/19 07:55:52;;;;;;;7.55;3.10;;;26.20;51.40;26.80;100483.00;;;;5010411;28;20172;-52
2023/06/19 07:58:18;;;;;;;6.72;3.40;;;26.20;51.40;26.80;100486.00;;;;5011518;28;20172;-50
2023/06/19 08:00:44;;;;;;;5.03;2.97;;;26.20;51.30;26.80;100495.00;;;;5011563;28;20578;-51
2023/06/19 08:03:10;;;;;;;6.20;3.33;;;26.30;51.30;26.80;100484.00;;;;5011219;28;20680;-53
2023/06/19 08:05:35;;;;;;;8.60;3.30;;;26.20;51.20;26.80;100492.00;;;;5011254;28;20167;-51
2023/06/19 08:08:01;;;;;;;4.43;2.70;;;26.20;51.10;26.70;100484.00;;;;5011265;28;20666;-51
2023/06/19 08:10:27;;;;;;;6.97;3.38;;;26.20;51.00;26.80;100485.00;;;;5011507;28;20179;-51
2023/06/19 08:12:53;;;;;;;3.40;2.60;;;26.20;51.20;26.80;100480.00;;;;5011171;28;20327;-51
2023/06/19 08:15:18;;;;;;;5.35;3.15;;;26.20;51.00;26.80;100480.00;;;;5010935;28;20287;-52
2023/06/19 08:17:44;;;;;;;3.95;2.72;;;26.20;51.10;26.80;100486.00;;;;5010613;28;20666;-52
2023/06/19 08:20:10;;;;;;;4.80;2.95;;;26.30;51.10;26.80;100481.00;;;;5011391;28;20296;-53
2023/06/19 08:22:36;;;;;;;4.95;3.10;;;26.30;51.10;26.80;100486.00;;;;5027123;28;20171;-52
2023/06/19 08:25:03;;;;;;;4.40;2.60;;;26.30;51.10;26.90;100483.00;;;;5022861;28;20194;-52
2023/06/19 08:27:29;;;;;;;5.38;2.88;;;26.30;51.10;26.90;100487.00;;;;5026940;28;20570;-51
2023/06/19 08:29:55;;;;;;;5.22;2.78;;;26.30;51.00;26.90;100491.00;;;;5011476;28;20172;-52
2023/06/19 08:32:20;;;;;;;5.93;2.90;;;26.30;51.00;26.90;100489.00;;;;5011568;28;20168;-51
2023/06/19 08:34:46;;;;;;;5.00;2.75;;;26.30;50.90;26.90;100488.00;;;;5012337;28;20221;-54
2023/06/19 08:37:12;;;;;;;4.80;2.67;;;26.30;50.90;26.90;100487.00;;;;5017968;28;20187;-54
2023/06/19 08:39:38;;;;;;;4.90;2.70;;;26.30;50.90;26.90;100485.00;;;;5032842;28;20187;-51
2023/06/19 08:42:08;;;;;;;4.55;2.78;;;26.30;51.00;26.90;100488.00;;;;5012729;28;20592;-53
2023/06/19 08:44:35;;;;;;;3.08;2.63;;;26.30;51.00;26.90;100483.00;;;;5011589;28;20206;-51
2023/06/19 08:47:03;;;;;;;4.05;2.60;;;26.30;51.00;26.90;100483.00;;;;5010981;28;20554;-52
2023/06/19 08:49:33;;;;;;;4.18;2.78;;;26.30;51.00;26.90;100486.00;;;;5010942;28;20179;-52
2023/06/19 08:51:59;;;;;;;4.05;2.58;;;26.30;51.00;26.90;100489.00;;;;5010563;28;20179;-51
2023/06/19 08:54:25;;;;;;;3.13;2.75;;;26.30;51.00;26.90;100499.00;;;;5025972;28;20199;-52
2023/06/19 08:56:53;;;;;;;3.35;2.67;;;26.30;51.00;26.90;100496.00;;;;5010183;28;20575;-52
2023/06/19 08:59:19;;;;;;;3.33;2.55;;;26.30;51.00;26.90;100496.00;;;;5010480;28;20208;-52
2023/06/19 09:01:52;;;;;;;5.68;2.55;;;26.30;51.00;27.00;100490.00;;;;5010290;28;20163;-51
2023/06/19 09:04:20;;;;;;;3.97;2.72;;;26.30;51.00;27.00;100496.00;;;;5025396;28;20167;-51
2023/06/19 09:06:53;;;;;;;2.75;2.55;;;26.30;51.00;27.00;100487.00;;;;5009995;28;20589;-51
2023/06/19 09:09:20;;;;;;;4.93;2.55;;;26.30;51.00;27.00;100489.00;;;;5010406;28;20187;-52
2023/06/19 09:12:11;;;;;;;4.57;3.05;;;26.30;51.00;27.00;100481.00;;;;5010178;28;20186;-53
2023/06/19 09:14:42;;;;;;;4.20;2.70;;;26.30;51.10;27.00;100494.00;;;;5010146;28;20657;-53
2023/06/19 09:17:20;;;;;;;3.83;2.70;;;26.30;51.10;27.00;100488.00;;;;5010342;28;20283;-51
2023/06/19 09:19:55;;;;;;;2.85;2.50;;;26.30;51.10;27.00;100495.00;;;;5010299;28;20195;-52
2023/06/19 09:22:21;;;;;;;2.72;2.25;;;26.40;51.20;27.00;100498.00;;;;5010217;28;20179;-52
2023/06/19 09:24:47;;;;;;;3.15;2.40;;;26.40;51.20;27.00;100521.00;;;;5025210;28;20168;-51
2023/06/19 09:27:18;;;;;;;3.08;2.67;;;26.30;51.20;27.10;100507.00;;;;5010001;28;20271;-53
2023/06/19 09:29:45;;;;;;;3.10;2.50;;;26.30;51.20;27.10;100508.00;;;;5010147;28;20195;-52
2023/06/19 09:32:28;;;;;;;3.85;2.50;;;26.30;51.20;27.10;100513.00;;;;5010224;28;20171;-52
2023/06/19 09:34:55;;;;;;;3.20;2.30;;;26.40;51.20;27.10;100519.00;;;;5011301;28;20502;-53
2023/06/19 09:37:25;;;;;;;2.90;2.47;;;26.40;51.20;27.10;100512.00;;;;5014179;28;20456;-52
2023/06/19 09:40:00;;;;;;;3.85;2.70;;;26.40;51.30;27.10;100511.00;;;;5013400;28;20544;-53
2023/06/19 09:42:33;;;;;;;2.88;2.40;;;26.40;51.20;27.10;100508.00;;;;5014086;28;20167;-53
2023/06/19 09:45:01;;;;;;;3.70;2.70;;;26.40;51.20;27.10;100514.00;;;;5013618;28;20638;-51
2023/06/19 09:47:43;;;;;;;2.53;2.28;;;26.40;51.30;27.10;100518.00;;;;5014102;28;20386;-51
2023/06/19 09:50:11;;;;;;;3.45;2.40;;;26.40;51.30;27.10;100503.00;;;;5014483;28;20175;-52
2023/06/19 09:52:37;;;;;;;3.17;2.45;;;26.40;51.30;27.20;100504.00;;;;5028754;28;20210;-52
2023/06/19 09:55:06;;;;;;;3.78;2.50;;;26.40;51.30;27.20;100522.00;;;;5029169;28;20590;-50
2023/06/19 09:57:32;;;;;;;2.80;2.40;;;26.40;51.30;27.20;100520.00;;;;5015182;28;20202;-52
2023/06/19 09:59:58;;;;;;;4.03;2.42;;;26.40;51.30;27.20;100512.00;;;;5030459;28;20713;-52
2023/06/19 10:02:25;;;;;;;3.55;2.40;;;26.40;51.30;27.20;100519.00;;;;5029881;28;20247;-52
2023/06/19 10:04:55;;;;;;;2.50;2.30;;;26.40;51.30;27.20;100530.00;;;;5013305;28;20171;-50
2023/06/19 10:07:22;;;;;;;3.65;2.45;;;26.40;51.40;27.20;100522.00;;;;5013815;28;20716;-52
2023/06/19 10:10:02;;;;;;;2.88;2.67;;;26.40;51.40;27.20;100520.00;;;;5013300;28;20264;-52
2023/06/19 10:12:41;;;;;;;2.67;2.45;;;26.40;51.40;27.30;100528.00;;;;5013427;28;20187;-52
2023/06/19 10:15:19;;;;;;;3.33;2.70;;;26.50;51.40;27.30;100522.00;;;;5013160;28;20666;-51
2023/06/19 10:17:53;;;;;;;3.67;2.30;;;26.50;51.40;27.30;100527.00;;;;5028419;28;20195;-51
2023/06/19 10:20:27;;;;;;;3.08;2.78;;;26.50;51.40;27.30;100517.00;;;;5015077;28;20195;-52
2023/06/19 10:23:04;;;;;;;3.25;2.72;;;26.50;51.40;27.30;100506.00;;;;5016625;28;20186;-51
2023/06/19 10:25:33;;;;;;;2.90;2.50;;;26.50;51.50;27.40;100509.00;;;;5026903;28;20163;-53
2023/06/19 10:27:59;;;;;;;2.92;2.35;;;26.50;51.50;27.40;100513.00;;;;5012674;28;20195;-51
2023/06/19 10:30:25;;;;;;;3.25;2.40;;;26.50;51.50;27.40;100507.00;;;;5012988;28;20543;-53
2023/06/19 10:32:51;;;;;;;3.22;2.60;;;26.60;51.60;27.40;100507.00;;;;5025110;28;20251;-52
2023/06/19 10:35:17;;;;;;;2.50;2.30;;;26.60;51.60;27.40;100503.00;;;;5032069;28;20238;-53
2023/06/19 10:37:44;;;;;;;2.60;2.40;;;26.50;51.50;27.40;100499.00;;;;5013967;28;20270;-51
2023/06/19 10:40:12;;;;;;;2.35;2.20;;;26.60;52.30;27.40;100510.00;;;;5013859;28;20230;-54
2023/06/19 10:42:39;;;;;;;2.63;2.40;;;26.60;51.60;27.50;100508.00;;;;5013310;28;20178;-52
2023/06/19 10:45:08;;;;;;;2.85;2.60;;;26.60;51.60;27.50;100518.00;;;;5013481;28;20193;-54
2023/06/19 10:47:35;;;;;;;3.15;2.40;;;26.60;51.60;27.50;100501.00;;;;5015119;28;20192;-53